Time;durP1;ratioP1;P1;durP2;ratioP2;P2;SDS_P1;SDS_P2;PMS_P1;PMS_P2;Temp;Humidity;BMP_temperature;BMP_pressure;BME280_temperature;BME280_humidity;BME280_pressure;Samples;Min_cycle;Max_cycle;Signal;HPM_P1;HPM_P2
2023/03/30 00:01:54;;;;;;;6.03;2.17;;;;;;;14.06;100.00;100422.31;5013279;28;20038;-46
2023/03/30 00:04:25;;;;;;;5.72;2.30;;;;;;;14.03;100.00;100412.75;5013336;28;20038;-44
2023/03/30 00:06:51;;;;;;;;;;;;;;;13.99;100.00;100428.84;5013588;28;20045;-48
2023/03/30 00:09:16;;;;;;;4.85;1.80;;;;;;;13.84;100.00;100409.34;5012690;28;19917;-46
2023/03/30 00:11:44;;;;;;;4.07;2.63;;;;;;;13.85;100.00;100400.47;5011450;28;20057;-46
2023/03/30 00:14:10;;;;;;;4.43;2.40;;;;;;;13.41;100.00;100336.69;5011775;28;20034;-44
2023/03/30 00:16:36;;;;;;;5.93;2.95;;;;;;;13.78;100.00;100404.38;5012951;28;20034;-49
2023/03/30 00:19:01;;;;;;;5.28;2.22;;;;;;;13.73;100.00;100400.25;5011575;28;20125;-46
2023/03/30 00:21:27;;;;;;;3.28;2.08;;;;;;;13.77;100.00;100400.03;5011710;28;20049;-43
2023/03/30 00:23:52;;;;;;;4.18;2.20;;;;;;;13.37;100.00;100342.19;5012916;28;20042;-47
2023/03/30 00:26:17;;;;;;;5.32;2.40;;;;;;;13.38;100.00;100346.56;5012658;28;20025;-43
2023/03/30 00:28:43;;;;;;;5.78;1.98;;;;;;;13.76;100.00;100415.97;5012821;28;20065;-46
2023/03/30 00:31:10;;;;;;;6.15;2.03;;;;;;;13.43;100.00;100357.75;5028042;28;20041;-45
2023/03/30 00:33:35;;;;;;;3.17;2.15;;;;;;;13.76;100.00;100410.69;5012836;28;20404;-48
2023/03/30 00:36:01;;;;;;;7.70;2.22;;;;;;;13.60;100.00;100394.72;5028114;28;20030;-44
2023/03/30 00:38:28;;;;;;;6.28;2.33;;;;;;;13.54;100.00;100403.00;5012561;28;20442;-49
2023/03/30 00:40:55;;;;;;;6.78;2.53;;;;;;;13.25;100.00;100335.75;5012517;28;20050;-51
2023/03/30 00:43:21;;;;;;;5.55;2.47;;;;;;;13.22;100.00;100330.63;5011173;28;20576;-45
2023/03/30 00:45:46;;;;;;;5.45;2.25;;;;;;;13.64;100.00;100398.94;5012676;28;20062;-50
2023/03/30 00:48:21;;;;;;;4.97;2.00;;;;;;;13.65;100.00;100391.88;5027552;28;20096;-50
2023/03/30 00:50:50;;;;;;;4.85;2.13;;;;;;;13.24;100.00;100331.41;5011836;28;20030;-51
2023/03/30 00:53:20;;;;;;;8.85;2.60;;;;;;;13.65;100.00;100383.94;5010971;28;20030;-46
2023/03/30 00:55:46;;;;;;;11.93;2.17;;;;;;;13.63;100.00;100391.09;5027679;28;20034;-48
2023/03/30 00:58:14;;;;;;;6.18;2.10;;;;;;;13.17;100.00;100326.50;5027779;28;20137;-45
2023/03/30 01:00:39;;;;;;;6.00;2.08;;;;;;;13.19;100.00;100330.78;5027502;28;20342;-46
2023/03/30 01:03:31;;;;;;;8.23;2.58;;;;;;;13.45;100.00;100395.56;5012411;28;20032;-49
2023/03/30 01:05:59;;;;;;;4.82;1.95;;;;;;;13.53;100.00;100388.94;5012440;28;20085;-46
2023/03/30 01:08:26;;;;;;;6.70;2.35;;;;;;;13.37;100.00;100360.69;5027534;28;20085;-47
2023/03/30 01:10:51;;;;;;;8.52;2.13;;;;;;;13.34;100.00;100360.84;5010845;28;20088;-45
2023/03/30 01:13:18;;;;;;;9.15;2.08;;;;;;;13.38;100.00;100357.13;5011033;28;20038;-45
2023/03/30 01:15:56;;;;;;;5.90;2.00;;;;;;;13.06;100.00;100300.59;5027243;28;20471;-43
2023/03/30 01:18:36;;;;;;;7.55;2.03;;;;;;;13.42;100.00;100356.06;5012404;28;20038;-50
2023/03/30 01:21:26;;;;;;;8.90;2.55;;;;;;;12.99;100.00;100291.25;5012397;28;20026;-45
2023/03/30 01:24:03;;;;;;;6.68;2.10;;;;;;;13.29;100.00;100362.88;5027208;28;20036;-46
2023/03/30 01:26:43;;;;;;;7.13;2.25;;;;;;;13.32;100.00;100360.09;5026806;28;20030;-44
2023/03/30 01:29:12;;;;;;;7.50;2.35;;;;;;;13.30;100.00;100357.53;5012188;28;20117;-45
2023/03/30 01:31:44;;;;;;;3.45;1.70;;;;;;;13.28;100.00;100345.34;5012091;28;20045;-49
2023/03/30 01:34:16;;;;;;;5.47;1.90;;;;;;;13.24;100.00;100346.41;5011946;28;20038;-46
2023/03/30 01:37:00;;;;;;;4.65;1.70;;;;;;;13.24;100.00;100355.19;5012104;28;20370;-49
2023/03/30 01:39:40;;;;;;;7.82;2.20;;;;;;;13.20;100.00;100335.13;5011874;28;20258;-44
2023/03/30 01:42:12;;;;;;;7.50;2.10;;;;;;;13.19;100.00;100327.31;5027269;28;20038;-47
2023/03/30 01:45:04;;;;;;;6.57;2.05;;;;;;;13.16;100.00;100319.53;5027229;28;20083;-47
2023/03/30 01:47:47;;;;;;;7.30;2.50;;;;;;;13.13;100.00;100320.53;5027395;28;20445;-47
2023/03/30 01:50:23;;;;;;;6.20;2.22;;;;;;;12.96;100.00;100302.84;5011884;28;20099;-48
2023/03/30 01:53:07;;;;;;;7.78;2.22;;;;;;;12.90;100.00;100308.44;5010655;28;20503;-45
2023/03/30 01:55:40;;;;;;;5.60;1.98;;;;;;;12.54;100.00;100262.75;5011833;28;20061;-49
2023/03/30 01:58:19;;;;;;;7.95;2.80;;;;;;;12.39;100.00;100252.94;5010831;28;20030;-47
2023/03/30 02:00:49;;;;;;;4.85;1.80;;;;;;;12.84;100.00;100335.16;5026915;28;20037;-47
2023/03/30 02:03:30;;;;;;;9.43;2.13;;;;;;;12.86;100.00;100337.72;5026707;28;20057;-47
2023/03/30 02:06:02;;;;;;;7.30;1.83;;;;;;;12.80;100.00;100335.41;5010343;28;20034;-48
2023/03/30 02:08:30;;;;;;;9.07;2.50;;;;;;;12.47;100.00;100273.66;5026672;28;20095;-49
2023/03/30 02:10:56;;;;;;;5.85;2.10;;;;;;;12.88;100.00;100336.72;5009988;28;20054;-48
2023/03/30 02:13:22;;;;;;;7.35;2.53;;;;;;;12.80;100.00;100314.25;5010517;28;20032;-44
2023/03/30 02:15:50;;;;;;;6.75;2.13;;;;;;;12.63;100.00;100282.56;5011711;28;20129;-45
2023/03/30 02:18:18;;;;;;;5.40;2.40;;;;;;;12.90;100.00;100334.84;5011421;28;20034;-46
2023/03/30 02:20:43;;;;;;;5.60;2.97;;;;;;;12.91;100.00;100338.34;5014510;28;20096;-45
2023/03/30 02:23:09;;;;;;;5.63;2.25;;;;;;;12.94;100.00;100336.41;5015295;28;20034;-47
2023/03/30 02:25:37;;;;;;;6.90;2.33;;;;;;;12.67;100.00;100286.75;5013815;28;20033;-46
2023/03/30 02:28:03;;;;;;;7.35;2.20;;;;;;;12.98;100.00;100321.28;5015293;28;20552;-47
2023/03/30 02:30:37;;;;;;;6.57;1.75;;;;;;;12.99;100.00;100322.97;5013862;28;20113;-43
2023/03/30 02:33:03;;;;;;;6.38;1.92;;;;;;;12.97;100.00;100303.72;5014897;28;20030;-47
2023/03/30 02:35:36;;;;;;;6.60;2.20;;;;;;;12.95;100.00;100298.50;5014879;28;20045;-49
2023/03/30 02:38:23;;;;;;;7.72;2.83;;;;;;;12.83;100.00;100307.06;5015140;28;20034;-47
2023/03/30 02:41:14;;;;;;;7.35;2.13;;;;;;;12.81;100.00;100311.53;5013406;28;20049;-48
2023/03/30 02:43:42;;;;;;;7.53;1.77;;;;;;;12.79;100.00;100309.91;5014468;28;20034;-44
2023/03/30 02:46:08;;;;;;;6.13;1.83;;;;;;;12.82;100.00;100294.75;5013720;28;20100;-50
2023/03/30 02:48:48;;;;;;;5.65;1.85;;;;;;;12.81;100.00;100305.41;5014742;28;20030;-45
2023/03/30 02:51:32;;;;;;;5.17;1.90;;;;;;;12.85;100.00;100304.31;5014496;28;20374;-45
2023/03/30 02:54:08;;;;;;;5.93;1.77;;;;;;;12.55;100.00;100240.69;5013131;28;20702;-43
2023/03/30 02:57:05;;;;;;;6.72;2.10;;;;;;;12.53;100.00;100232.00;5014445;28;20041;-44
2023/03/30 02:59:36;;;;;;;11.27;2.08;;;;;;;12.87;100.00;100305.13;5014698;28;20044;-45
2023/03/30 03:02:12;;;;;;;6.68;2.00;;;;;;;12.85;100.00;100286.69;5013136;28;20033;-44
2023/03/30 03:04:42;;;;;;;3.97;2.22;;;;;;;12.42;100.00;100213.19;5014197;28;20037;-45
2023/03/30 03:07:09;;;;;;;5.63;2.20;;;;;;;12.88;100.00;100297.09;5014359;28;20485;-44
2023/03/30 03:09:35;;;;;;;5.03;2.00;;;;;;;12.46;100.00;100227.09;5012869;28;20069;-49
2023/03/30 03:12:01;;;;;;;3.97;1.90;;;;;;;12.51;100.00;100223.31;5014145;28;20081;-43
2023/03/30 03:14:26;;;;;;;6.05;2.17;;;;;;;12.43;100.00;100209.66;5014279;28;20030;-45
2023/03/30 03:16:53;;;;;;;8.55;2.80;;;;;;;12.79;100.00;100272.94;5014149;28;20060;-46
2023/03/30 03:19:18;;;;;;;4.80;1.40;;;;;;;12.85;100.00;100291.97;5013176;28;20121;-45
2023/03/30 03:21:44;;;;;;;4.60;2.03;;;;;;;12.50;100.00;100218.94;5013872;28;20160;-45
2023/03/30 03:24:12;;;;;;;6.20;1.70;;;;;;;12.96;100.00;100286.13;5014152;28;20069;-46
2023/03/30 03:26:37;;;;;;;6.47;2.47;;;;;;;12.68;100.00;100218.03;5013959;28;20037;-43
2023/03/30 03:29:02;;;;;;;7.60;2.05;;;;;;;13.00;100.00;100274.50;5013877;28;20392;-45
2023/03/30 03:31:28;;;;;;;7.38;2.35;;;;;;;12.88;100.00;100253.97;5013679;28;20519;-47
2023/03/30 03:33:53;;;;;;;8.23;2.10;;;;;;;12.99;100.00;100286.84;5014118;28;20391;-45
2023/03/30 03:36:18;;;;;;;8.50;2.10;;;;;;;13.00;100.00;100285.06;5029192;28;20044;-44
2023/03/30 03:38:44;;;;;;;7.35;1.95;;;;;;;12.99;100.00;100278.91;5013938;28;20125;-43
2023/03/30 03:41:09;;;;;;;8.32;2.25;;;;;;;12.59;100.00;100204.44;5013507;28;20061;-43
2023/03/30 03:43:35;;;;;;;7.90;2.10;;;;;;;12.72;100.00;100239.84;5029094;28;20038;-44
2023/03/30 03:46:00;;;;;;;7.10;1.88;;;;;;;12.56;100.00;100221.28;5012315;28;20034;-49
2023/03/30 03:48:26;;;;;;;7.85;1.80;;;;;;;12.46;100.00;100211.28;5013554;28;20576;-42
2023/03/30 03:50:56;;;;;;;7.07;2.22;;;;;;;12.85;100.00;100281.41;5012975;28;20113;-44
2023/03/30 03:53:23;;;;;;;6.72;2.35;;;;;;;12.44;100.00;100195.50;5012414;28;20036;-47
2023/03/30 03:55:48;;;;;;;6.50;1.98;;;;;;;12.63;100.00;100229.75;5013226;28;20469;-46
2023/03/30 03:58:14;;;;;;;9.40;2.40;;;;;;;12.31;100.00;100189.13;5013350;28;20041;-46
2023/03/30 04:00:40;;;;;;;12.05;3.05;;;;;;;12.73;100.00;100267.94;5013324;28;20034;-47
2023/03/30 04:03:07;;;;;;;7.85;2.50;;;;;;;12.71;100.00;100278.59;5013379;28;20400;-45
2023/03/30 04:05:32;;;;;;;9.07;2.25;;;;;;;12.67;100.00;100278.81;5028440;28;20433;-44
2023/03/30 04:07:58;;;;;;;7.03;2.53;;;;;;;12.59;100.00;100257.22;5012872;28;20116;-47
2023/03/30 04:10:23;;;;;;;8.63;2.47;;;;;;;12.34;100.00;100220.66;5012868;28;20077;-45
2023/03/30 04:12:49;;;;;;;8.10;2.30;;;;;;;12.56;100.00;100260.88;5013130;28;20045;-46
2023/03/30 04:15:14;;;;;;;15.07;4.00;;;;;;;12.14;100.00;100204.94;5028247;28;20034;-48
2023/03/30 04:17:40;;;;;;;14.90;4.05;;;;;;;12.00;100.00;100202.94;5011865;28;20380;-45
2023/03/30 04:20:11;;;;;;;10.98;3.20;;;;;;;12.04;100.00;100206.31;5012714;28;20041;-47
2023/03/30 04:22:40;;;;;;;14.77;3.28;;;;;;;12.44;100.00;100279.97;5013133;28;20034;-43
2023/03/30 04:25:10;;;;;;;9.63;2.47;;;;;;;12.29;100.00;100256.94;5012849;28;20116;-46
2023/03/30 04:27:41;;;;;;;10.50;3.00;;;;;;;12.28;100.00;100279.00;5011481;28;20386;-48
2023/03/30 04:30:07;;;;;;;;;;;;;;;12.26;100.00;100273.78;5028156;28;20037;-46
2023/03/30 04:32:33;;;;;;;15.70;3.88;;;;;;;12.21;100.00;100261.75;5011386;28;20339;-50
2023/03/30 04:35:00;;;;;;;15.35;4.10;;;;;;;12.04;100.00;100244.09;5011642;28;20182;-48
2023/03/30 04:37:29;;;;;;;13.30;4.18;;;;;;;12.14;100.00;100257.72;5012802;28;20084;-47
2023/03/30 04:39:58;;;;;;;15.88;4.68;;;;;;;11.91;100.00;100240.31;5012643;28;20037;-47
2023/03/30 04:42:29;;;;;;;15.20;4.57;;;;;;;11.88;100.00;100255.44;5012103;28;20042;-45
2023/03/30 04:44:56;;;;;;;13.35;3.78;;;;;;;11.77;100.00;100248.88;5011608;28;20038;-46
2023/03/30 04:47:23;;;;;;;15.57;4.78;;;;;;;11.27;100.00;100172.09;5012748;28;20096;-46
2023/03/30 04:49:48;;;;;;;13.52;4.80;;;;;;;11.24;100.00;100169.59;5027736;28;20030;-48
2023/03/30 04:52:14;;;;;;;18.50;4.10;;;;;;;11.56;100.00;100238.41;5012513;28;20081;-47
2023/03/30 04:54:39;;;;;;;25.23;5.10;;;;;;;11.08;100.00;100158.06;5012233;28;20049;-45
2023/03/30 04:57:05;;;;;;;16.73;5.68;;;;;;;11.38;100.00;100231.38;5012621;28;20457;-47
2023/03/30 04:59:30;;;;;;;16.15;4.05;;;;;;;11.29;100.00;100235.28;5012660;28;20087;-44
2023/03/30 05:01:55;;;;;;;12.75;3.97;;;;;;;10.84;100.00;100161.78;5009936;28;20037;-44
2023/03/30 05:04:21;;;;;;;14.93;3.80;;;;;;;11.15;100.00;100213.94;5012210;28;20029;-44
2023/03/30 05:06:48;;;;;;;19.05;3.53;;;;;;;11.18;100.00;100230.47;5008900;28;20096;-43
2023/03/30 05:09:14;;;;;;;16.38;4.05;;;;;;;11.18;100.00;100219.94;5012162;28;20058;-44
2023/03/30 05:11:39;;;;;;;16.67;4.15;;;;;;;11.15;100.00;100229.75;5010110;28;20112;-48
2023/03/30 05:14:05;;;;;;;19.73;4.22;;;;;;;11.08;100.00;100223.06;5011901;28;20068;-46
2023/03/30 05:16:30;;;;;;;24.35;4.78;;;;;;;10.68;100.00;100168.66;5005051;28;20072;-47
2023/03/30 05:18:56;;;;;;;15.45;3.90;;;;;;;11.03;100.00;100232.94;4991137;28;20053;-47
2023/03/30 05:21:22;;;;;;;15.10;4.75;;;;;;;10.99;100.00;100234.00;4992533;28;20448;-46
2023/03/30 05:23:47;;;;;;;22.67;4.50;;;;;;;10.96;100.00;100234.13;4992230;28;20042;-45
2023/03/30 05:26:12;;;;;;;24.05;4.55;;;;;;;10.93;100.00;100239.53;5010788;28;20097;-46
2023/03/30 05:28:38;;;;;;;23.38;4.65;;;;;;;10.46;100.00;100173.97;4992720;28;20026;-47
2023/03/30 05:31:03;;;;;;;17.15;4.53;;;;;;;10.43;100.00;100189.88;4996404;28;20404;-46
2023/03/30 05:33:28;;;;;;;19.05;4.18;;;;;;;10.41;100.00;100204.03;5010882;28;20034;-49
2023/03/30 05:35:54;;;;;;;26.17;4.80;;;;;;;10.79;100.00;100260.31;5011763;28;20397;-44
2023/03/30 05:38:19;;;;;;;25.35;4.97;;;;;;;10.06;100.00;100132.69;5011976;28;20117;-45
2023/03/30 05:40:45;;;;;;;20.08;4.75;;;;;;;10.81;100.00;100248.78;5012091;28;20034;-45
2023/03/30 05:43:10;;;;;;;25.15;5.20;;;;;;;10.82;100.00;100257.56;5009979;28;20185;-45
2023/03/30 05:45:36;;;;;;;24.17;4.95;;;;;;;10.77;100.00;100255.09;4993443;28;20034;-47
2023/03/30 05:48:01;;;;;;;23.17;4.93;;;;;;;10.72;100.00;100262.34;5009292;28;20045;-50
2023/03/30 05:50:27;;;;;;;27.13;5.18;;;;;;;10.76;100.00;100268.34;5010151;28;20087;-46
2023/03/30 05:52:52;;;;;;;22.45;5.05;;;;;;;10.83;100.00;100261.91;5008703;28;20065;-49
2023/03/30 05:55:18;;;;;;;16.80;4.55;;;;;;;10.91;100.00;100265.94;4999428;28;20109;-43
2023/03/30 05:57:44;;;;;;;17.33;5.07;;;;;;;10.98;100.00;100250.69;4996391;28;20496;-49
2023/03/30 06:00:12;;;;;;;22.85;5.75;;;;;;;10.77;100.00;100226.16;4996117;28;20054;-46
2023/03/30 06:02:37;;;;;;;27.13;5.13;;;;;;;10.83;100.00;100227.69;4999920;28;20382;-44
2023/03/30 06:05:03;;;;;;;24.58;5.18;;;;;;;11.21;100.00;100277.75;4996130;28;20042;-43
2023/03/30 06:07:29;;;;;;;24.27;5.28;;;;;;;10.86;100.00;100225.75;5022466;28;20044;-45
2023/03/30 06:09:54;;;;;;;24.40;5.88;;;;;;;11.27;100.00;100289.81;5015508;28;20041;-44
2023/03/30 06:12:20;;;;;;;26.73;5.22;;;;;;;11.22;100.00;100290.00;5001215;28;20080;-43
2023/03/30 06:14:46;;;;;;;28.33;5.95;;;;;;;10.88;100.00;100223.94;5006665;28;20080;-45
2023/03/30 06:17:12;;;;;;;30.45;5.78;;;;;;;11.32;100.00;100286.03;4998079;28;20033;-45
2023/03/30 06:19:38;;;;;;;25.63;5.43;;;;;;;11.37;100.00;100312.19;5015061;28;20117;-46
2023/03/30 06:22:04;;;;;;;27.23;5.97;;;;;;;11.24;100.00;100263.59;5014048;28;20046;-46
2023/03/30 06:24:30;;;;;;;22.42;5.70;;;;;;;11.38;100.00;100302.53;5014262;28;20095;-46
2023/03/30 06:26:55;;;;;;;26.92;5.95;;;;;;;11.36;100.00;100302.56;5014059;28;20030;-44
2023/03/30 06:29:21;;;;;;;27.75;5.63;;;;;;;11.38;100.00;100298.13;5015270;28;20033;-46
2023/03/30 06:31:46;;;;;;;31.80;6.13;;;;;;;11.50;100.00;100316.00;5013738;28;20429;-47
2023/03/30 06:34:12;;;;;;;27.52;5.93;;;;;;;11.16;100.00;100258.66;5015081;28;20041;-48
2023/03/30 06:36:37;;;;;;;29.83;5.43;;;;;;;11.57;100.00;100301.63;5013851;28;20442;-44
2023/03/30 06:39:04;;;;;;;28.25;5.45;;;;;;;11.62;100.00;100319.88;5012894;28;20068;-50
2023/03/30 06:41:30;;;;;;;20.20;4.82;;;;;;;11.57;100.00;100304.25;5013677;28;20038;-48
2023/03/30 06:43:55;;;;;;;21.33;5.68;;;;;;;11.70;100.00;100323.06;5015166;28;20076;-45
2023/03/30 06:46:20;;;;;;;23.45;5.22;;;;;;;11.40;100.00;100280.44;5014994;28;20112;-47
2023/03/30 06:48:46;;;;;;;23.92;5.93;;;;;;;11.39;100.00;100262.91;5013441;28;20440;-48
2023/03/30 06:51:13;;;;;;;23.50;5.60;;;;;;;11.49;100.00;100272.13;4998220;28;20046;-46
2023/03/30 06:53:39;;;;;;;25.83;5.25;;;;;;;11.88;100.00;100314.28;4995154;28;20478;-47
2023/03/30 06:56:05;;;;;;;19.75;5.40;;;;;;;11.64;100.00;100257.41;5013662;28;20049;-45
2023/03/30 06:58:31;;;;;;;26.55;5.78;;;;;;;11.85;100.00;100281.00;4997081;28;20076;-45
2023/03/30 07:00:56;;;;;;;28.35;6.35;;;;;;;11.89;100.00;100286.16;5014772;28;20543;-46
2023/03/30 07:03:22;;;;;;;19.30;5.05;;;;;;;12.41;100.00;100336.41;5014472;28;20044;-43
2023/03/30 07:05:51;;;;;;;25.88;5.95;;;;;;;12.69;100.00;100330.66;5014585;28;20029;-43
2023/03/30 07:08:17;;;;;;;24.77;5.63;;;;;;;12.83;100.00;100343.16;5013428;28;20088;-45
2023/03/30 07:10:43;;;;;;;24.60;6.07;;;;;;;12.90;100.00;100349.88;5014306;28;20448;-45
2023/03/30 07:13:09;;;;;;;22.85;5.10;;;;;;;12.95;100.00;100367.19;5013274;28;20056;-46
2023/03/30 07:15:34;;;;;;;24.80;5.57;;;;;;;12.97;100.00;100351.25;5008859;28;20042;-48
2023/03/30 07:18:00;;;;;;;23.02;5.70;;;;;;;13.08;100.00;100361.31;5005564;28;20069;-49
2023/03/30 07:20:26;;;;;;;20.83;5.25;;;;;;;13.13;100.00;100367.25;4990803;28;20030;-45
2023/03/30 07:22:51;;;;;;;25.15;5.72;;;;;;;12.92;100.00;100295.16;5010581;28;20034;-44
2023/03/30 07:25:17;;;;;;;17.13;4.82;;;;;;;13.43;100.00;100363.88;4993165;28;20084;-44
2023/03/30 07:27:42;;;;;;;23.10;5.90;;;;;;;12.99;100.00;100315.03;4992376;28;20046;-45
2023/03/30 07:30:09;;;;;;;20.55;5.07;;;;;;;13.16;100.00;100359.16;4996127;28;20033;-48
2023/03/30 07:32:34;;;;;;;24.85;5.75;;;;;;;12.91;100.00;100385.91;5011676;28;20033;-46
2023/03/30 07:35:00;;;;;;;28.83;5.72;;;;;;;12.78;100.00;100382.16;5012260;28;20384;-48
2023/03/30 07:37:25;;;;;;;26.05;6.10;;;;;;;12.70;100.00;100395.72;5011800;28;20045;-43
2023/03/30 07:39:51;;;;;;;32.67;6.00;;;;;;;12.62;100.00;100400.50;5012766;28;20034;-50
2023/03/30 07:42:16;;;;;;;28.23;7.05;;;;;;;12.43;100.00;100338.13;5013311;28;20117;-49
2023/03/30 07:44:41;;;;;;;22.30;5.93;;;;;;;12.48;100.00;100336.09;5013637;28;20103;-43
2023/03/30 07:47:07;;;;;;;25.08;6.35;;;;;;;12.82;100.00;100394.28;5012310;28;20160;-50
2023/03/30 07:49:33;;;;;;;23.23;6.07;;;;;;;12.81;100.00;100389.94;5013143;28;20045;-45
2023/03/30 07:51:58;;;;;;;33.42;7.32;;;;;;;12.65;100.00;100408.28;5007991;28;20055;-44
2023/03/30 07:54:23;;;;;;;30.35;7.28;;;;;;;12.44;100.00;100369.69;4993061;28;20121;-43
2023/03/30 07:56:52;;;;;;;34.40;6.63;;;;;;;12.30;100.00;100333.41;4994025;28;20109;-46
2023/03/30 07:59:18;;;;;;;28.25;7.25;;;;;;;12.70;100.00;100405.41;4992956;28;20125;-46
2023/03/30 08:01:45;;;;;;;25.23;6.40;;;;;;;12.92;100.00;100398.19;4994083;28;20513;-47
2023/03/30 08:04:11;;;;;;;24.00;6.07;;;;;;;13.32;100.00;100399.72;5005933;28;20492;-44
2023/03/30 08:06:37;;;;;;;25.08;6.80;;;;;;;14.07;100.00;100414.28;5012857;28;20474;-45
2023/03/30 08:09:03;;;;;;;27.88;6.47;;;;;;;14.52;100.00;100426.84;5013457;28;20092;-46
2023/03/30 08:11:28;;;;;;;30.92;7.07;;;;;;;14.64;100.00;100377.63;5013254;28;20412;-47
2023/03/30 08:13:54;;;;;;;29.50;7.00;;;;;;;14.70;100.00;100361.41;5013325;28;20026;-46
2023/03/30 08:16:19;;;;;;;23.85;6.88;;;;;;;15.24;100.00;100391.81;5010950;28;20523;-45
2023/03/30 08:18:46;;;;;;;33.42;6.78;;;;;;;15.46;100.00;100368.41;5011945;28;20040;-45
2023/03/30 08:21:11;;;;;;;23.63;7.68;;;;;;;15.65;100.00;100413.25;5011417;28;20029;-45
2023/03/30 08:23:37;;;;;;;18.02;6.18;;;;;;;15.86;100.00;100376.63;5011705;28;20491;-44
2023/03/30 08:26:02;;;;;;;28.38;6.38;;;;;;;16.10;100.00;100385.72;5013269;28;20029;-46
2023/03/30 08:28:28;;;;;;;27.08;7.28;;;;;;;16.28;100.00;100401.38;5013239;28;20045;-45
2023/03/30 08:30:53;;;;;;;27.30;6.63;;;;;;;16.58;100.00;100446.41;5027716;28;20032;-45
2023/03/30 08:33:19;;;;;;;26.30;7.05;;;;;;;16.48;100.00;100410.75;5012974;28;20034;-45
2023/03/30 08:35:46;;;;;;;22.98;6.15;;;;;;;16.83;100.00;100448.38;5028381;28;20037;-46
2023/03/30 08:38:16;;;;;;;22.55;8.10;;;;;;;17.57;100.00;100470.06;5013468;28;20062;-45
2023/03/30 08:40:45;;;;;;;21.85;7.07;;;;;;;17.39;100.00;100463.31;5032657;28;20068;-47
2023/03/30 08:43:32;;;;;;;27.15;7.00;;;;;;;17.84;100.00;100483.34;5031495;28;20030;-45
2023/03/30 08:45:59;;;;;;;25.20;7.13;;;;;;;18.07;100.00;100473.78;5032475;28;20037;-47
2023/03/30 08:48:26;;;;;;;23.50;6.35;;;;;;;18.03;100.00;100470.50;5031346;28;20042;-46
2023/03/30 08:51:02;;;;;;;20.38;6.53;;;;;;;18.44;100.00;100471.13;5032506;28;20026;-49
2023/03/30 08:53:29;;;;;;;23.40;5.72;;;;;;;18.74;100.00;100478.75;5047696;28;20570;-47
2023/03/30 08:55:57;;;;;;;27.02;7.10;;;;;;;18.80;100.00;100477.47;5030235;28;20484;-52
2023/03/30 08:58:48;;;;;;;20.00;5.90;;;;;;;18.83;100.00;100486.09;5047793;28;20067;-47
2023/03/30 09:01:26;;;;;;;21.50;6.20;;;;;;;18.06;100.00;100448.09;5048352;28;20041;-47
2023/03/30 09:04:03;;;;;;;23.98;6.72;;;;;;;17.75;100.00;100502.59;5032559;28;20037;-47
2023/03/30 09:06:44;;;;;;;20.52;5.53;;;;;;;16.65;100.00;100474.31;5030981;28;20048;-47
2023/03/30 09:09:12;;;;;;;33.05;6.63;;;;;;;16.63;100.00;100516.09;5047923;28;20041;-46
2023/03/30 09:11:38;;;;;;;22.10;6.13;;;;;;;16.80;100.00;100509.72;5029896;28;20053;-46
2023/03/30 09:14:05;;;;;;;20.08;6.28;;;;;;;17.83;100.00;100521.59;5013222;28;20041;-46
2023/03/30 09:16:38;;;;;;;27.00;7.00;;;;;;;18.06;100.00;100474.75;4993321;28;20038;-48
2023/03/30 09:19:06;;;;;;;25.48;7.05;;;;;;;19.00;100.00;100530.25;5010252;28;20393;-47
2023/03/30 09:21:32;;;;;;;28.80;6.97;;;;;;;18.95;100.00;100530.56;4994018;28;20065;-46
2023/03/30 09:23:59;;;;;;;29.45;6.95;;;;;;;18.83;100.00;100528.78;4992152;28;20497;-46
2023/03/30 09:26:34;;;;;;;26.73;7.30;;;;;;;18.33;100.00;100532.28;5006203;28;20394;-51
2023/03/30 09:29:05;;;;;;;18.70;6.63;;;;;;;17.86;100.00;100524.03;5014157;28;20473;-48
2023/03/30 09:31:40;;;;;;;25.58;7.53;;;;;;;17.55;100.00;100503.06;4994353;28;20042;-52
2023/03/30 09:34:26;;;;;;;25.88;6.60;;;;;;;17.29;100.00;100479.00;4995678;28;20030;-48
2023/03/30 09:36:56;;;;;;;25.10;6.55;;;;;;;17.93;100.00;100534.16;4995454;28;20094;-51
2023/03/30 09:39:24;;;;;;;32.63;8.32;;;;;;;17.96;100.00;100509.13;4995955;28;20397;-49
2023/03/30 09:42:08;;;;;;;31.05;7.93;;;;;;;18.37;100.00;100555.09;5021298;28;20112;-44
2023/03/30 09:44:43;;;;;;;19.48;6.45;;;;;;;18.74;100.00;100505.41;5008467;28;20061;-45
2023/03/30 09:47:31;;;;;;;26.50;7.90;;;;;;;19.00;100.00;100546.25;5015695;28;20037;-46
2023/03/30 09:49:59;;;;;;;26.38;7.53;;;;;;;19.30;100.00;100546.69;5003044;28;20148;-46
2023/03/30 09:52:27;;;;;;;24.35;6.40;;;;;;;19.51;100.00;100542.47;5026494;28;20041;-47
2023/03/30 09:54:52;;;;;;;25.23;7.22;;;;;;;20.16;100.00;100550.03;5025524;28;20025;-47
2023/03/30 09:57:36;;;;;;;22.75;6.63;;;;;;;20.61;100.00;100524.22;5020004;28;20042;-45
2023/03/30 10:00:22;;;;;;;22.42;6.22;;;;;;;20.47;100.00;100567.25;5018376;28;20389;-46
2023/03/30 10:02:59;;;;;;;23.90;6.72;;;;;;;19.94;100.00;100517.88;5020823;28;20030;-50
2023/03/30 10:05:26;;;;;;;22.60;7.05;;;;;;;20.35;100.00;100542.31;5030921;28;20022;-45
2023/03/30 10:07:53;;;;;;;28.98;7.53;;;;;;;19.07;100.00;100503.00;5030537;28;20030;-46
2023/03/30 10:10:19;;;;;;;19.58;6.75;;;;;;;18.92;100.00;100568.13;5004442;28;20091;-45
2023/03/30 10:12:45;;;;;;;25.08;7.35;;;;;;;17.57;100.00;100573.88;5025039;28;20652;-46
2023/03/30 10:15:16;;;;;;;32.72;7.10;;;;;;;16.93;100.00;100513.28;5027808;28;20029;-45
2023/03/30 10:17:41;;;;;;;23.80;6.28;;;;;;;17.31;100.00;100569.34;5015662;28;20029;-49
2023/03/30 10:20:27;;;;;;;21.55;6.45;;;;;;;16.79;100.00;100476.97;5004523;28;20075;-45
2023/03/30 10:22:55;;;;;;;22.35;6.72;;;;;;;17.44;100.00;100536.53;5022737;28;20026;-44
2023/03/30 10:25:23;;;;;;;25.05;6.78;;;;;;;17.50;100.00;100516.66;5030073;28;20120;-45
2023/03/30 10:27:52;;;;;;;29.98;8.07;;;;;;;18.16;100.00;100529.06;5018401;28;20046;-46
2023/03/30 10:30:20;;;;;;;30.10;7.05;;;;;;;18.39;100.00;100505.22;5028749;28;20026;-44
2023/03/30 10:32:45;;;;;;;24.27;6.32;;;;;;;19.30;100.00;100575.19;5025418;28;20120;-49
2023/03/30 10:35:17;;;;;;;28.73;7.40;;;;;;;18.50;100.00;100504.50;5015185;28;21165;-43
2023/03/30 10:37:45;;;;;;;26.48;6.57;;;;;;;19.10;100.00;100574.81;5029555;28;20392;-44
2023/03/30 10:40:33;;;;;;;21.15;6.38;;;;;;;18.88;100.00;100574.66;5012906;28;20042;-46
2023/03/30 10:42:58;;;;;;;23.98;7.47;;;;;;;18.83;100.00;100578.56;5020876;28;20037;-46
2023/03/30 10:45:40;;;;;;;25.05;6.88;;;;;;;18.64;100.00;100559.50;5042462;28;20121;-50
2023/03/30 10:48:11;;;;;;;29.02;7.10;;;;;;;18.68;100.00;100585.84;5035504;28;20052;-46
2023/03/30 10:50:50;;;;;;;22.58;6.50;;;;;;;19.19;100.00;100541.28;5046030;28;20034;-43
2023/03/30 10:53:25;;;;;;;22.50;6.53;;;;;;;19.36;100.00;100588.09;5016102;28;20128;-45
2023/03/30 10:56:24;;;;;;;25.15;6.70;;;;;;;18.50;100.00;100526.66;5022385;28;20042;-45
2023/03/30 10:59:08;;;;;;;19.80;6.35;;;;;;;18.66;100.00;100602.91;5002949;28;20121;-45
2023/03/30 11:01:42;;;;;;;26.13;6.70;;;;;;;18.41;100.00;100601.91;5028929;28;20400;-43
2023/03/30 11:04:18;;;;;;;20.70;6.38;;;;;;;18.41;100.00;100588.59;5019733;28;20038;-45
2023/03/30 11:06:44;;;;;;;27.02;8.10;;;;;;;18.29;100.00;100594.75;5035934;28;20029;-46
2023/03/30 11:09:15;;;;;;;25.88;7.15;;;;;;;17.69;100.00;100605.00;5013464;28;20028;-44
2023/03/30 11:11:49;;;;;;;24.42;7.40;;;;;;;16.79;100.00;100599.22;5012926;28;20065;-46
2023/03/30 11:14:25;;;;;;;22.98;5.63;;;;;;;16.50;100.00;100592.16;5014705;28;20034;-45
2023/03/30 11:17:02;;;;;;;30.58;7.32;;;;;;;15.90;100.00;100527.66;4996977;28;20393;-46
2023/03/30 11:19:57;;;;;;;23.58;6.65;;;;;;;16.03;100.00;100596.78;5014230;28;20405;-47
2023/03/30 11:22:29;;;;;;;25.25;6.68;;;;;;;16.15;100.00;100588.09;5008752;28;20052;-46